Time;durP1;ratioP1;P1;durP2;ratioP2;P2;SDS_P1;SDS_P2;PMS_P1;PMS_P2;Temp;Humidity;BMP_temperature;BMP_pressure;BME280_temperature;BME280_humidity;BME280_pressure;Samples;Min_cycle;Max_cycle;Signal;HPM_P1;HPM_P2
2021/11/09 00:00:51;;;;;;;14.48;7.60;;;3.50;99.90;;;;;;5054252;28;20132;-81
2021/11/09 00:03:19;;;;;;;15.43;7.63;;;3.50;99.90;;;;;;5054112;28;20056;-82
2021/11/09 00:05:53;;;;;;;13.90;7.53;;;3.60;99.90;;;;;;5055191;28;20136;-82
2021/11/09 00:08:23;;;;;;;17.15;8.40;;;3.60;99.90;;;;;;5054107;28;20506;-81
2021/11/09 00:10:51;;;;;;;19.90;8.25;;;3.60;99.90;;;;;;5053749;28;20044;-80
2021/11/09 00:13:19;;;;;;;18.00;7.80;;;3.60;99.90;;;;;;5054392;28;20139;-81
2021/11/09 00:15:48;;;;;;;17.42;8.00;;;3.60;99.90;;;;;;5053884;28;20072;-81
2021/11/09 00:18:16;;;;;;;16.08;7.97;;;3.60;99.90;;;;;;5053600;28;20156;-80
2021/11/09 00:20:43;;;;;;;18.17;8.07;;;3.60;99.90;;;;;;5054136;28;20055;-82
2021/11/09 00:23:12;;;;;;;13.65;8.00;;;3.50;99.90;;;;;;5053496;28;20426;-80
2021/11/09 00:25:41;;;;;;;14.75;7.55;;;3.50;99.90;;;;;;5053831;28;20136;-80
2021/11/09 00:28:10;;;;;;;12.32;6.60;;;3.50;99.90;;;;;;5053666;28;20427;-81
2021/11/09 00:30:38;;;;;;;16.67;8.18;;;3.40;99.90;;;;;;5053451;28;20049;-80
2021/11/09 00:33:07;;;;;;;17.23;7.97;;;3.40;99.90;;;;;;5053942;28;20139;-80
2021/11/09 00:35:36;;;;;;;14.15;7.65;;;3.30;99.90;;;;;;5053290;28;20577;-80
2021/11/09 00:38:06;;;;;;;13.43;7.22;;;3.30;99.90;;;;;;5053580;28;20167;-78
2021/11/09 00:40:36;;;;;;;16.23;7.13;;;3.30;99.90;;;;;;5053391;28;20110;-80
2021/11/09 00:43:06;;;;;;;15.93;8.25;;;3.30;99.90;;;;;;5052668;28;20080;-80
2021/11/09 00:45:34;;;;;;;14.60;7.55;;;3.30;99.90;;;;;;5053596;28;20577;-78
2021/11/09 00:48:02;;;;;;;17.27;7.70;;;3.30;99.90;;;;;;5052944;28;20578;-80
2021/11/09 00:50:32;;;;;;;12.65;7.57;;;3.30;99.90;;;;;;5053881;28;20574;-80
2021/11/09 00:52:59;;;;;;;13.52;8.02;;;3.30;99.90;;;;;;5052476;28;20173;-80
2021/11/09 00:55:28;;;;;;;17.60;8.07;;;3.20;99.90;;;;;;5053418;28;20049;-81
2021/11/09 00:57:55;;;;;;;15.20;7.78;;;3.20;99.90;;;;;;5053710;28;20048;-80
2021/11/09 01:00:25;;;;;;;20.00;7.70;;;3.20;99.90;;;;;;5053076;28;20169;-79
2021/11/09 01:02:53;;;;;;;14.88;7.80;;;3.10;99.90;;;;;;5052759;28;20136;-79
2021/11/09 01:05:24;;;;;;;14.43;8.02;;;3.10;99.90;;;;;;5052703;28;20090;-79
2021/11/09 01:07:57;;;;;;;14.68;7.35;;;3.10;99.90;;;;;;5051801;28;20103;-80
2021/11/09 01:10:27;;;;;;;15.57;8.73;;;3.10;99.90;;;;;;5052149;28;20049;-79
2021/11/09 01:12:54;;;;;;;15.75;7.32;;;3.10;99.90;;;;;;5053173;28;20836;-80
2021/11/09 01:15:22;;;;;;;16.02;8.20;;;3.10;99.90;;;;;;5052904;28;20136;-80
2021/11/09 01:17:50;;;;;;;15.02;7.80;;;3.00;99.90;;;;;;5053270;28;20145;-80
2021/11/09 01:20:23;;;;;;;15.82;7.68;;;3.00;99.90;;;;;;5053240;28;20084;-80
2021/11/09 01:22:51;;;;;;;15.13;7.68;;;2.90;99.90;;;;;;5052803;28;20111;-81
2021/11/09 01:25:21;;;;;;;15.13;8.10;;;2.80;99.90;;;;;;5053494;28;20083;-81
2021/11/09 01:27:49;;;;;;;13.98;7.38;;;2.70;99.90;;;;;;5052802;28;20839;-81
2021/11/09 01:30:19;;;;;;;16.63;7.82;;;2.70;99.90;;;;;;5053140;28;20143;-80
2021/11/09 01:32:46;;;;;;;14.45;8.20;;;2.70;99.90;;;;;;5052799;28;20049;-78
2021/11/09 01:35:14;;;;;;;16.83;8.55;;;2.60;99.90;;;;;;5052961;28;20510;-79
2021/11/09 01:37:41;;;;;;;15.90;8.27;;;2.60;99.90;;;;;;5052937;28;20136;-80
2021/11/09 01:40:11;;;;;;;13.65;8.02;;;2.60;99.90;;;;;;5052963;28;20056;-80
2021/11/09 01:42:40;;;;;;;15.35;8.80;;;2.60;99.90;;;;;;5033442;28;20455;-79
2021/11/09 01:45:10;;;;;;;16.30;8.70;;;2.70;99.90;;;;;;5052612;28;20132;-79
2021/11/09 01:47:38;;;;;;;17.52;8.75;;;2.70;99.90;;;;;;5052941;28;20132;-79
2021/11/09 01:50:09;;;;;;;19.33;8.63;;;2.60;99.90;;;;;;5052667;28;20155;-80
2021/11/09 01:52:39;;;;;;;14.73;8.05;;;2.60;99.90;;;;;;5052741;28;20053;-80
2021/11/09 01:55:10;;;;;;;17.25;8.70;;;2.60;99.90;;;;;;5051817;28;20068;-79
2021/11/09 01:57:39;;;;;;;16.58;8.80;;;2.50;99.90;;;;;;5052440;28;20080;-79
2021/11/09 02:00:15;;;;;;;15.75;8.52;;;2.50;99.90;;;;;;5051788;28;20135;-80
2021/11/09 02:02:43;;;;;;;15.75;8.18;;;2.50;99.90;;;;;;5052410;28;20520;-80
2021/11/09 02:05:12;;;;;;;14.35;8.25;;;2.50;99.90;;;;;;5052067;28;20494;-79
2021/11/09 02:07:45;;;;;;;14.32;7.95;;;2.50;99.90;;;;;;5052606;28;20677;-79
2021/11/09 02:10:12;;;;;;;12.68;7.90;;;2.50;99.90;;;;;;5052305;28;20053;-79
2021/11/09 02:12:42;;;;;;;14.38;8.23;;;2.50;99.90;;;;;;5052136;28;20155;-80
2021/11/09 02:15:10;;;;;;;14.90;7.95;;;2.50;99.90;;;;;;5052150;28;20044;-80
2021/11/09 02:17:38;;;;;;;14.57;8.18;;;2.50;99.90;;;;;;5052396;28;20052;-79
2021/11/09 02:20:07;;;;;;;15.40;8.45;;;2.50;99.90;;;;;;5052536;28;20132;-79
2021/11/09 02:22:36;;;;;;;16.15;8.98;;;2.50;99.90;;;;;;5052845;28;20120;-80
2021/11/09 02:25:04;;;;;;;14.27;8.50;;;2.40;99.90;;;;;;5052631;28;20080;-80
2021/11/09 02:27:32;;;;;;;15.18;8.57;;;2.40;99.90;;;;;;5052775;28;20045;-79
2021/11/09 02:29:59;;;;;;;17.80;8.75;;;2.30;99.90;;;;;;5052857;28;20056;-79
2021/11/09 02:32:26;;;;;;;16.55;8.27;;;2.30;99.90;;;;;;5053376;28;20135;-80
2021/11/09 02:34:54;;;;;;;17.58;8.45;;;2.30;99.90;;;;;;5052919;28;20069;-79
2021/11/09 02:37:21;;;;;;;16.70;9.02;;;2.30;99.90;;;;;;5051831;28;20049;-79
2021/11/09 02:39:50;;;;;;;20.40;8.55;;;2.20;99.90;;;;;;5051992;28;20056;-81
2021/11/09 02:42:21;;;;;;;19.33;8.25;;;2.20;99.90;;;;;;5052382;28;20111;-80
2021/11/09 02:44:59;;;;;;;15.95;8.10;;;2.20;99.90;;;;;;5052028;28;20053;-80
2021/11/09 02:47:29;;;;;;;16.60;7.80;;;2.20;99.90;;;;;;5051655;28;20053;-79
2021/11/09 02:50:00;;;;;;;11.70;7.13;;;2.20;99.90;;;;;;5052127;28;20407;-80
2021/11/09 02:52:29;;;;;;;13.25;6.88;;;2.20;99.90;;;;;;5052323;28;20041;-82
2021/11/09 02:55:02;;;;;;;12.57;7.60;;;2.20;99.90;;;;;;5052436;28;20140;-81
2021/11/09 02:57:36;;;;;;;13.65;6.93;;;2.20;99.90;;;;;;5051569;28;20076;-81
2021/11/09 03:00:17;;;;;;;14.98;7.68;;;2.20;99.90;;;;;;5052425;28;20052;-81
2021/11/09 03:02:47;;;;;;;16.15;7.32;;;2.30;99.90;;;;;;5060455;28;20045;-82
2021/11/09 03:05:18;;;;;;;18.70;8.80;;;2.30;99.90;;;;;;5063020;28;20546;-81
2021/11/09 03:07:49;;;;;;;17.35;7.45;;;2.40;99.90;;;;;;5060632;28;20055;-82
2021/11/09 03:10:27;;;;;;;16.08;8.45;;;2.40;99.90;;;;;;5052606;28;20053;-81
2021/11/09 03:12:55;;;;;;;16.80;7.80;;;2.40;99.90;;;;;;5055936;28;20048;-82
2021/11/09 03:15:26;;;;;;;15.40;7.43;;;2.40;99.90;;;;;;5055791;28;20122;-80
2021/11/09 03:17:56;;;;;;;14.57;7.72;;;2.40;99.90;;;;;;5056359;28;20445;-82
2021/11/09 03:20:29;;;;;;;14.52;7.60;;;2.50;99.90;;;;;;5055827;28;20051;-80
2021/11/09 03:45:05;;;;;;;15.43;8.30;;;2.20;99.90;;;;;;5055856;28;20014;-80
2021/11/09 03:47:36;;;;;;;18.02;8.20;;;2.10;99.90;;;;;;5055617;28;20186;-81
2021/11/09 03:50:04;;;;;;;14.32;7.97;;;2.10;99.90;;;;;;5055412;28;20543;-80
2021/11/09 03:52:39;;;;;;;16.08;7.97;;;2.00;99.90;;;;;;5055319;28;20478;-80
2021/11/09 03:55:07;;;;;;;16.13;7.55;;;2.00;99.90;;;;;;5054312;28;20131;-80
2021/11/09 03:57:39;;;;;;;15.10;7.53;;;2.00;99.90;;;;;;5055083;28;20048;-80
2021/11/09 04:00:16;;;;;;;13.73;7.38;;;2.10;99.90;;;;;;5055229;28;20445;-82
2021/11/09 04:02:49;;;;;;;16.45;7.70;;;2.20;99.90;;;;;;5052837;28;20084;-82
2021/11/09 04:05:19;;;;;;;15.02;7.53;;;2.20;99.90;;;;;;5052217;28;20048;-78
2021/11/09 04:07:54;;;;;;;14.15;7.88;;;2.30;99.90;;;;;;5051358;28;20091;-79
2021/11/09 04:10:31;;;;;;;13.95;7.90;;;2.30;99.90;;;;;;5051428;28;20495;-79
2021/11/09 04:13:16;;;;;;;14.13;8.10;;;2.40;99.90;;;;;;5051157;28;20099;-79
2021/11/09 04:15:54;;;;;;;11.05;6.57;;;2.40;99.90;;;;;;5051136;28;20140;-80
2021/11/09 04:18:33;;;;;;;13.93;7.32;;;2.40;99.90;;;;;;5051229;28;20064;-80
2021/11/09 04:21:08;;;;;;;12.45;7.65;;;2.50;99.90;;;;;;5051438;28;20055;-82
2021/11/09 04:23:57;;;;;;;14.70;7.63;;;2.50;99.90;;;;;;5050797;28;20500;-82
2021/11/09 04:29:25;;;;;;;14.17;7.87;;;2.50;99.90;;;;;;5051484;28;20053;-80
2021/11/09 05:08:33;;;;;;;13.65;7.60;;;2.20;99.90;;;;;;5000741;28;20046;-88
2021/11/09 05:11:00;;;;;;;13.80;7.50;;;2.10;99.90;;;;;;5001066;28;20056;-86
2021/11/09 05:13:28;;;;;;;12.63;7.45;;;2.00;99.90;;;;;;5009001;28;20110;-86
2021/11/09 05:15:55;;;;;;;13.63;7.90;;;2.00;99.90;;;;;;5009906;28;20046;-86
2021/11/09 05:18:24;;;;;;;13.88;8.18;;;1.90;99.90;;;;;;4983405;28;20578;-80
2021/11/09 05:20:54;;;;;;;13.15;7.47;;;1.90;99.90;;;;;;4975433;28;20054;-78
2021/11/09 05:23:21;;;;;;;12.07;6.75;;;1.90;99.90;;;;;;4975880;28;20050;-83
2021/11/09 05:25:49;;;;;;;13.07;7.25;;;1.90;99.90;;;;;;4986410;28;20136;-83
2021/11/09 05:28:17;;;;;;;13.23;7.95;;;1.90;99.90;;;;;;4995669;28;20058;-83
2021/11/09 05:30:48;;;;;;;12.77;7.82;;;1.80;99.90;;;;;;4992301;28;20054;-80
2021/11/09 05:33:19;;;;;;;14.02;7.28;;;1.80;99.90;;;;;;4994399;28;20145;-83
2021/11/09 05:35:47;;;;;;;12.60;7.47;;;1.70;99.90;;;;;;4989609;28;20133;-80
2021/11/09 05:38:18;;;;;;;13.13;7.47;;;1.60;99.90;;;;;;4992788;28;20046;-78
2021/11/09 05:40:52;;;;;;;12.27;7.50;;;1.60;99.90;;;;;;4993166;28;20133;-79
2021/11/09 05:43:20;;;;;;;11.45;7.55;;;1.60;99.90;;;;;;4993872;28;20515;-80
2021/11/09 05:45:47;;;;;;;10.68;6.65;;;1.60;99.90;;;;;;4994368;28;20452;-80
2021/11/09 05:48:15;;;;;;;12.10;7.03;;;1.50;99.90;;;;;;4994324;28;20872;-80
2021/11/09 05:50:42;;;;;;;12.48;6.97;;;1.50;99.90;;;;;;4994621;28;20050;-80
2021/11/09 05:53:09;;;;;;;13.10;7.35;;;1.60;99.90;;;;;;4994395;28;20084;-80
2021/11/09 05:55:38;;;;;;;12.35;6.95;;;1.50;99.90;;;;;;4994319;28;20101;-81
2021/11/09 05:58:05;;;;;;;12.20;7.40;;;1.50;99.90;;;;;;4993397;28;20137;-80
2021/11/09 06:00:32;;;;;;;11.38;6.93;;;1.50;99.90;;;;;;4994074;28;20061;-80
2021/11/09 06:02:59;;;;;;;10.52;6.38;;;1.40;99.90;;;;;;4995465;28;20592;-80
2021/11/09 06:05:28;;;;;;;10.25;6.53;;;1.40;99.90;;;;;;5009396;28;20092;-81
2021/11/09 06:07:55;;;;;;;11.43;7.00;;;1.30;99.90;;;;;;5014698;28;20072;-80
2021/11/09 06:10:22;;;;;;;11.27;6.95;;;1.30;99.90;;;;;;5014423;28;20578;-80
2021/11/09 06:12:51;;;;;;;12.95;7.38;;;1.20;99.90;;;;;;5013202;28;20133;-82
2021/11/09 06:15:18;;;;;;;11.27;7.03;;;1.20;99.90;;;;;;4995729;28;20057;-80
2021/11/09 06:17:46;;;;;;;12.73;7.45;;;1.20;99.90;;;;;;5012960;28;20092;-80
2021/11/09 06:20:13;;;;;;;14.02;7.35;;;1.10;99.90;;;;;;5013119;28;20503;-80
2021/11/09 06:22:40;;;;;;;11.35;6.75;;;1.10;99.90;;;;;;5012942;28;20046;-80
2021/11/09 06:25:08;;;;;;;14.15;7.38;;;1.10;99.90;;;;;;5016126;28;20181;-82
2021/11/09 06:27:36;;;;;;;12.88;7.63;;;1.00;99.90;;;;;;5017163;28;20073;-81
2021/11/09 06:30:07;;;;;;;12.00;7.05;;;1.00;99.90;;;;;;5016274;28;20057;-80
2021/11/09 06:32:34;;;;;;;11.60;7.00;;;1.00;99.90;;;;;;5016712;28;20129;-81
2021/11/09 06:35:02;;;;;;;11.88;7.05;;;1.10;99.90;;;;;;5015012;28;20129;-80
2021/11/09 06:37:33;;;;;;;12.30;7.15;;;1.10;99.90;;;;;;4996111;28;20085;-80
2021/11/09 06:40:00;;;;;;;11.70;6.88;;;1.10;99.90;;;;;;4996506;28;20053;-80
2021/11/09 06:42:27;;;;;;;10.55;6.93;;;1.20;99.90;;;;;;5012734;28;20060;-80
2021/11/09 06:44:54;;;;;;;12.20;6.50;;;1.20;99.90;;;;;;5012530;28;20136;-80
2021/11/09 06:47:22;;;;;;;11.25;6.93;;;1.20;99.90;;;;;;5012455;28;20554;-81
2021/11/09 06:49:50;;;;;;;12.55;7.25;;;1.20;99.90;;;;;;5012641;28;20129;-80
2021/11/09 06:52:17;;;;;;;11.77;7.10;;;1.30;99.90;;;;;;5012744;28;20136;-80
2021/11/09 06:54:46;;;;;;;10.60;6.80;;;1.30;99.90;;;;;;5012713;28;20133;-81
2021/11/09 06:57:13;;;;;;;11.35;7.38;;;1.30;99.90;;;;;;5013319;28;20119;-81
2021/11/09 06:59:40;;;;;;;10.82;6.65;;;1.40;99.90;;;;;;5012302;28;20128;-81
2021/11/09 07:02:08;;;;;;;10.52;6.22;;;1.50;99.90;;;;;;5012279;28;20076;-80
2021/11/09 07:04:37;;;;;;;11.38;6.45;;;1.50;99.90;;;;;;5012122;28;20092;-79
2021/11/09 07:07:05;;;;;;;10.18;6.53;;;1.50;99.90;;;;;;5012524;28;20085;-79
2021/11/09 07:09:32;;;;;;;10.25;6.28;;;1.60;99.90;;;;;;5012265;28;20053;-79
2021/11/09 07:12:02;;;;;;;10.10;6.38;;;1.60;99.90;;;;;;5012473;28;20120;-79
2021/11/09 07:14:29;;;;;;;11.15;6.47;;;1.70;99.90;;;;;;5012258;28;20056;-80
2021/11/09 07:16:57;;;;;;;10.13;6.35;;;1.80;99.90;;;;;;5012127;28;20092;-80
2021/11/09 07:19:24;;;;;;;12.70;6.93;;;1.80;99.90;;;;;;5013139;28;20089;-80
2021/11/09 07:21:52;;;;;;;12.25;6.75;;;1.90;99.90;;;;;;5012498;28;20500;-79
2021/11/09 07:24:20;;;;;;;11.82;6.82;;;2.00;99.90;;;;;;5012138;28;20415;-81
2021/11/09 07:26:54;;;;;;;11.13;6.78;;;2.00;99.90;;;;;;5012613;28;20045;-80
2021/11/09 07:29:22;;;;;;;11.35;6.55;;;2.00;99.90;;;;;;5012726;28;20053;-80
2021/11/09 07:31:52;;;;;;;10.73;6.35;;;2.10;99.90;;;;;;5012057;28;20092;-80
2021/11/09 07:34:19;;;;;;;9.40;6.55;;;2.10;99.90;;;;;;5012394;28;20046;-80
2021/11/09 07:36:47;;;;;;;11.65;7.03;;;2.10;99.90;;;;;;5012299;28;20050;-80
2021/11/09 07:39:15;;;;;;;12.52;7.05;;;2.10;99.90;;;;;;5012740;28;20124;-81
2021/11/09 07:41:43;;;;;;;11.57;7.07;;;2.10;99.90;;;;;;4995107;28;20053;-80
2021/11/09 07:44:10;;;;;;;10.75;6.57;;;2.10;99.90;;;;;;5012973;28;20137;-81
2021/11/09 07:46:37;;;;;;;11.00;7.05;;;2.10;99.90;;;;;;5002160;28;20559;-81
2021/11/09 07:49:05;;;;;;;11.50;6.55;;;2.20;99.90;;;;;;5011888;28;20081;-82
2021/11/09 07:51:35;;;;;;;10.40;6.72;;;2.20;99.90;;;;;;5011937;28;20700;-82
2021/11/09 07:54:03;;;;;;;10.98;6.60;;;2.20;99.90;;;;;;5009325;28;20050;-82
2021/11/09 07:56:33;;;;;;;10.68;6.55;;;2.20;99.90;;;;;;5008055;28;20115;-82
2021/11/09 07:59:21;;;;;;;11.90;7.00;;;2.20;99.90;;;;;;5011540;28;20045;-81
2021/11/09 08:01:59;;;;;;;12.15;6.90;;;2.30;99.90;;;;;;5012970;28;20057;-82
2021/11/09 08:04:30;;;;;;;10.68;6.68;;;2.30;99.90;;;;;;5012501;28;20495;-81
2021/11/09 08:07:00;;;;;;;10.50;6.50;;;2.30;99.90;;;;;;5012155;28;20050;-83
2021/11/09 08:09:28;;;;;;;12.57;7.38;;;2.30;99.90;;;;;;5013547;28;20054;-82
2021/11/09 08:11:59;;;;;;;14.35;7.72;;;2.40;99.90;;;;;;5012471;28;20100;-81
2021/11/09 08:14:27;;;;;;;10.65;7.00;;;2.40;99.90;;;;;;5012713;28;20385;-80
2021/11/09 08:16:56;;;;;;;11.75;6.40;;;2.40;99.90;;;;;;5015838;28;20140;-80
2021/11/09 08:19:25;;;;;;;12.15;7.00;;;2.40;99.90;;;;;;5011649;28;20053;-81
2021/11/09 08:21:54;;;;;;;10.88;7.28;;;2.50;99.90;;;;;;4996056;28;20046;-79
2021/11/09 08:24:23;;;;;;;12.00;7.30;;;2.50;99.90;;;;;;5011728;28;20058;-79
2021/11/09 08:26:53;;;;;;;13.55;8.10;;;2.50;99.90;;;;;;5011619;28;20050;-79
2021/11/09 08:29:25;;;;;;;12.27;7.47;;;2.50;99.90;;;;;;5012474;28;20133;-80
2021/11/09 08:31:56;;;;;;;15.00;8.30;;;2.60;99.90;;;;;;5011033;28;20476;-78
2021/11/09 08:34:24;;;;;;;15.38;9.50;;;2.70;99.90;;;;;;5011322;28;20081;-79
2021/11/09 08:36:52;;;;;;;16.58;9.80;;;2.70;99.90;;;;;;4996657;28;20520;-79
2021/11/09 08:39:25;;;;;;;14.75;9.70;;;2.80;99.90;;;;;;4994815;28;20061;-80
2021/11/09 08:42:00;;;;;;;18.33;9.98;;;2.90;99.90;;;;;;5002401;28;20126;-79
2021/11/09 08:44:33;;;;;;;15.80;10.40;;;2.90;99.90;;;;;;4991887;28;20058;-79
2021/11/09 08:47:01;;;;;;;17.55;9.90;;;3.00;99.90;;;;;;4991138;28;20408;-79
2021/11/09 08:49:32;;;;;;;17.23;10.65;;;3.10;99.90;;;;;;4991850;28;20047;-79
2021/11/09 08:52:03;;;;;;;17.48;10.35;;;3.20;99.90;;;;;;4991592;28;20058;-79
2021/11/09 08:54:33;;;;;;;18.25;10.85;;;3.30;99.90;;;;;;5008438;28;20046;-80
2021/11/09 08:57:19;;;;;;;16.27;9.77;;;3.30;99.90;;;;;;5010540;28;20081;-79
2021/11/09 09:05:17;;;;;;;14.10;8.98;;;3.40;99.90;;;;;;5010158;28;20077;-79
2021/11/09 09:07:44;;;;;;;13.63;8.98;;;3.40;99.90;;;;;;5010564;28;20141;-79
2021/11/09 09:10:15;;;;;;;13.30;8.68;;;3.40;99.90;;;;;;5005980;28;20285;-79
2021/11/09 09:12:44;;;;;;;14.25;8.85;;;3.30;99.90;;;;;;5010146;28;20053;-80
2021/11/09 09:15:17;;;;;;;14.52;8.65;;;3.30;99.90;;;;;;5009863;28;20443;-80
2021/11/09 09:17:45;;;;;;;15.23;8.95;;;3.30;99.90;;;;;;5010103;28;20080;-80
2021/11/09 09:20:17;;;;;;;13.23;8.38;;;3.30;99.90;;;;;;5009019;28;20407;-82
2021/11/09 09:22:51;;;;;;;16.05;8.68;;;3.30;99.90;;;;;;5009746;28;20050;-80
2021/11/09 09:25:32;;;;;;;13.65;8.55;;;3.30;99.90;;;;;;5009002;28;20112;-80
2021/11/09 09:28:21;;;;;;;16.52;8.95;;;3.30;99.90;;;;;;5009560;28;20096;-80
2021/11/09 09:53:06;;;;;;;16.45;9.50;;;3.70;99.90;;;;;;4992840;28;20133;-79
2021/11/09 09:55:39;;;;;;;;;;;3.80;99.90;;;;;;5009181;28;20124;-79
2021/11/09 09:58:08;;;;;;;16.80;10.27;;;3.70;99.90;;;;;;4990815;28;19925;-79
2021/11/09 10:00:37;;;;;;;16.67;10.05;;;3.80;99.90;;;;;;4991476;28;20065;-80
2021/11/09 10:03:06;;;;;;;18.63;11.00;;;3.80;99.90;;;;;;5009721;28;20523;-80
2021/11/09 10:05:38;;;;;;;17.83;10.68;;;3.80;99.90;;;;;;5011004;28;20133;-79
2021/11/09 10:08:13;;;;;;;19.02;11.07;;;3.90;99.90;;;;;;5010744;28;20056;-78
2021/11/09 10:10:41;;;;;;;18.77;10.52;;;3.90;99.90;;;;;;5008345;28;20054;-79
2021/11/09 10:13:12;;;;;;;18.50;11.32;;;4.00;99.90;;;;;;5008786;28;20157;-79
2021/11/09 10:15:47;;;;;;;19.33;12.35;;;4.00;99.90;;;;;;5008379;28;20092;-80
2021/11/09 10:18:19;;;;;;;17.80;11.80;;;4.10;99.90;;;;;;5007873;28;20060;-81
2021/11/09 10:20:50;;;;;;;18.40;11.60;;;4.20;99.90;;;;;;5007697;28;20480;-81
2021/11/09 10:23:20;;;;;;;20.10;11.38;;;4.30;99.90;;;;;;5007986;28;20539;-80
2021/11/09 10:25:48;;;;;;;18.65;11.05;;;4.30;99.90;;;;;;4976489;28;20050;-82
2021/11/09 10:28:19;;;;;;;19.48;11.48;;;4.50;99.90;;;;;;5008761;28;20133;-81
2021/11/09 10:30:49;;;;;;;19.13;11.15;;;4.60;99.90;;;;;;4995353;28;20138;-81
2021/11/09 10:33:23;;;;;;;18.30;10.43;;;4.70;99.90;;;;;;4990473;28;20049;-81
2021/11/09 10:35:51;;;;;;;16.98;10.13;;;4.90;99.90;;;;;;4997318;28;20159;-79
2021/11/09 10:38:18;;;;;;;18.20;10.88;;;5.00;99.90;;;;;;5007617;28;20129;-80
2021/11/09 10:40:49;;;;;;;16.80;10.07;;;5.10;99.90;;;;;;5007563;28;20455;-79
2021/11/09 10:43:22;;;;;;;16.58;10.00;;;5.20;99.90;;;;;;4991571;28;20082;-81
2021/11/09 10:45:49;;;;;;;17.75;10.93;;;5.30;99.90;;;;;;4988890;28;20065;-80
2021/11/09 10:48:20;;;;;;;16.38;10.10;;;5.40;99.90;;;;;;5007615;28;20157;-82
2021/11/09 10:50:50;;;;;;;17.58;10.20;;;5.50;99.90;;;;;;4990931;28;20058;-81
2021/11/09 10:53:21;;;;;;;15.55;10.18;;;5.60;99.90;;;;;;5009954;28;20046;-82
2021/11/09 10:55:58;;;;;;;15.77;9.55;;;5.60;99.90;;;;;;5011135;28;20053;-85
2021/11/09 10:58:41;;;;;;;15.43;9.60;;;5.80;99.90;;;;;;4992812;28;20790;-82
2021/11/09 11:04:02;;;;;;;16.70;8.88;;;6.00;99.90;;;;;;5006721;28;20133;-78
2021/11/09 11:06:32;;;;;;;16.35;8.07;;;6.00;99.90;;;;;;5005240;28;20042;-79
2021/11/09 11:09:02;;;;;;;12.48;7.65;;;6.20;99.90;;;;;;5008268;28;20053;-78
2021/11/09 11:11:33;;;;;;;11.73;6.90;;;6.30;99.90;;;;;;5007730;28;20884;-79
2021/11/09 11:14:11;;;;;;;11.70;6.82;;;6.40;99.90;;;;;;5007886;28;20085;-79
2021/11/09 11:16:42;;;;;;;13.02;7.15;;;6.60;99.90;;;;;;5008041;28;20132;-78
2021/11/09 11:19:13;;;;;;;12.52;7.32;;;6.70;99.90;;;;;;5008996;28;20558;-78
2021/11/09 11:21:40;;;;;;;11.25;6.22;;;6.90;99.90;;;;;;5008098;28;20128;-79
2021/11/09 11:24:10;;;;;;;10.82;5.43;;;7.10;99.90;;;;;;5007676;28;20054;-78
2021/11/09 11:26:39;;;;;;;10.13;5.05;;;7.30;99.90;;;;;;5007416;28;20103;-78
2021/11/09 11:29:07;;;;;;;8.13;4.85;;;7.50;99.90;;;;;;5007250;28;20077;-78
2021/11/09 11:31:35;;;;;;;8.65;4.80;;;7.80;99.90;;;;;;4990905;28;20050;-80
2021/11/09 11:34:03;;;;;;;8.75;4.97;;;7.90;99.90;;;;;;5012613;28;20473;-85
2021/11/09 11:36:31;;;;;;;8.68;4.03;;;8.10;99.90;;;;;;5012374;28;20052;-83
2021/11/09 11:39:04;;;;;;;9.60;3.30;;;8.30;99.90;;;;;;5014008;28;20081;-80
2021/11/09 11:41:34;;;;;;;7.70;3.28;;;8.50;99.90;;;;;;5013664;28;20419;-83
2021/11/09 11:44:06;;;;;;;6.53;3.00;;;8.70;99.90;;;;;;5013788;28;20169;-83
2021/11/09 11:46:57;;;;;;;7.63;2.88;;;8.90;98.70;;;;;;5015201;28;20495;-84
2021/11/09 11:49:49;;;;;;;5.63;2.45;;;9.00;97.60;;;;;;5011934;28;20085;-83
2021/11/09 11:52:31;;;;;;;8.32;2.70;;;9.20;96.90;;;;;;5015442;28;20050;-84
2021/11/09 11:55:22;;;;;;;8.57;2.65;;;9.30;95.70;;;;;;5019009;28;20116;-83
2021/11/09 11:57:53;;;;;;;5.75;2.17;;;9.40;94.80;;;;;;5013718;28;20050;-88
2021/11/09 12:00:40;;;;;;;6.45;2.55;;;9.60;94.50;;;;;;4996700;28;20140;-83
2021/11/09 12:03:34;;;;;;;7.07;2.65;;;9.70;93.40;;;;;;4995754;28;20051;-90
2021/11/09 12:06:03;;;;;;;6.03;2.33;;;9.80;92.80;;;;;;4985999;28;20050;-86
2021/11/09 12:08:40;;;;;;;4.72;2.08;;;9.90;92.40;;;;;;4994297;28;20054;-86
2021/11/09 12:11:10;;;;;;;6.85;2.10;;;10.00;92.20;;;;;;4995105;28;20101;-86
2021/11/09 12:13:57;;;;;;;6.78;2.42;;;10.20;92.10;;;;;;4994393;28;20163;-85
2021/11/09 12:16:52;;;;;;;7.18;2.33;;;10.40;91.50;;;;;;4994698;28;20072;-87
2021/11/09 12:19:49;;;;;;;6.45;2.08;;;10.50;90.00;;;;;;4995015;28;20129;-88
2021/11/09 12:22:20;;;;;;;6.63;2.40;;;10.70;88.20;;;;;;4995060;28;20070;-88
2021/11/09 12:24:54;;;;;;;7.68;2.60;;;10.80;86.30;;;;;;4995621;28;20054;-88
2021/11/09 12:27:22;;;;;;;4.95;1.88;;;11.00;86.60;;;;;;4995603;28;20077;-88
2021/11/09 12:29:52;;;;;;;7.28;2.45;;;11.20;87.30;;;;;;4998273;28;20052;-90
2021/11/09 12:32:42;;;;;;;6.13;2.00;;;11.50;84.80;;;;;;4996479;28;20050;-86
2021/11/09 12:35:24;;;;;;;7.55;2.10;;;11.70;83.60;;;;;;5008463;28;20054;-88
2021/11/09 12:38:17;;;;;;;7.68;2.10;;;12.00;82.90;;;;;;5013789;28;20050;-90
2021/11/09 12:40:56;;;;;;;7.43;2.10;;;12.30;89.40;;;;;;4995998;28;20050;-81
2021/11/09 12:43:43;;;;;;;6.50;2.00;;;12.60;91.00;;;;;;4994926;28;20139;-83
2021/11/09 12:46:15;;;;;;;5.20;1.80;;;12.70;86.50;;;;;;5012304;28;20052;-85
2021/11/09 12:48:50;;;;;;;4.95;1.80;;;;;;;;;;5012059;28;20058;-85
2021/11/09 12:51:20;;;;;;;5.97;2.10;;;13.30;91.80;;;;;;5013709;28;20133;-87
2021/11/09 12:53:51;;;;;;;6.05;1.88;;;13.40;90.00;;;;;;5018736;28;20049;-87
2021/11/09 12:56:30;;;;;;;4.95;1.92;;;13.70;71.60;;;;;;4997309;28;20144;-86
2021/11/09 12:59:01;;;;;;;7.60;1.90;;;13.90;67.30;;;;;;4997119;28;20050;-88
2021/11/09 13:01:44;;;;;;;6.05;1.80;;;;;;;;;;5013206;28;20050;-88
2021/11/09 13:04:21;;;;;;;5.38;1.90;;;;;;;;;;5013126;28;20053;-87
2021/11/09 13:09:44;;;;;;;5.57;2.10;;;16.00;61.60;;;;;;5021229;28;20050;-86
2021/11/09 13:12:16;;;;;;;6.25;2.00;;;17.20;57.70;;;;;;5021299;28;20050;-87
2021/11/09 13:14:45;;;;;;;4.68;1.85;;;18.10;61.60;;;;;;5013403;28;20145;-86
2021/11/09 13:17:16;;;;;;;6.50;1.90;;;19.20;52.60;;;;;;5012994;28;20137;-84
2021/11/09 13:19:45;;;;;;;5.63;2.00;;;20.50;49.20;;;;;;5013648;28;20100;-85
2021/11/09 13:22:16;;;;;;;5.45;1.92;;;22.10;45.20;;;;;;5013815;28;20085;-85
2021/11/09 13:24:57;;;;;;;5.60;2.03;;;23.50;43.20;;;;;;5013712;28;20046;-85
2021/11/09 13:27:40;;;;;;;4.72;1.52;;;25.00;40.90;;;;;;5012574;28;20050;-84
2021/11/09 13:30:20;;;;;;;5.05;1.77;;;26.50;39.00;;;;;;5012815;28;20060;-82
2021/11/09 13:32:51;;;;;;;5.80;1.92;;;28.00;37.10;;;;;;5013721;28;20054;-86
2021/11/09 13:35:24;;;;;;;6.32;2.08;;;29.20;35.40;;;;;;5013129;28;20056;-86
2021/11/09 13:37:53;;;;;;;5.15;1.92;;;30.10;34.10;;;;;;5013535;28;20050;-86
2021/11/09 13:40:21;;;;;;;5.90;1.80;;;30.80;33.20;;;;;;5025466;28;20066;-86
2021/11/09 13:43:05;;;;;;;4.75;1.88;;;31.30;31.50;;;;;;5015268;28;20049;-85
2021/11/09 13:45:33;;;;;;;4.35;1.63;;;31.80;31.80;;;;;;5010988;28;20496;-74
2021/11/09 13:48:00;;;;;;;4.03;1.55;;;32.20;31.40;;;;;;5010443;28;20049;-79
2021/11/09 13:50:29;;;;;;;4.00;1.65;;;32.50;32.50;;;;;;5010801;28;20128;-80
2021/11/09 13:52:56;;;;;;;6.60;2.03;;;33.10;31.30;;;;;;5009599;28;20053;-80
2021/11/09 13:55:23;;;;;;;5.13;1.95;;;33.60;30.30;;;;;;5008871;28;20049;-77
2021/11/09 13:57:52;;;;;;;5.05;1.95;;;34.00;29.90;;;;;;5009814;28;20046;-78
2021/11/09 14:00:30;;;;;;;4.10;1.77;;;34.60;30.00;;;;;;5009738;28;20137;-79
2021/11/09 14:03:16;;;;;;;5.35;1.73;;;35.30;30.40;;;;;;4994796;28;20050;-77
2021/11/09 14:06:19;;;;;;;5.70;2.08;;;35.70;29.20;;;;;;4989514;28;20141;-78
2021/11/09 14:09:15;;;;;;;5.55;2.15;;;36.30;32.80;;;;;;4989741;28;20405;-79
2021/11/09 14:14:42;;;;;;;4.60;1.98;;;37.30;28.10;;;;;;4968936;28;20042;-76
2021/11/09 14:17:10;;;;;;;4.93;1.80;;;37.60;27.90;;;;;;5007303;28;20050;-77
2021/11/09 14:19:40;;;;;;;5.60;1.60;;;37.60;27.70;;;;;;5008328;28;20566;-79
2021/11/09 14:22:13;;;;;;;4.60;1.70;;;37.50;27.60;;;;;;5008519;28;20463;-80
2021/11/09 14:24:41;;;;;;;4.40;1.63;;;37.30;27.60;;;;;;5008785;28;20046;-78
2021/11/09 14:27:12;;;;;;;4.95;1.83;;;37.20;27.50;;;;;;5008299;28;20137;-77
2021/11/09 14:29:50;;;;;;;4.55;1.60;;;36.80;27.50;;;;;;5008898;28;20133;-78
2021/11/09 14:32:23;;;;;;;5.53;1.90;;;36.70;27.70;;;;;;5008012;28;20140;-78
2021/11/09 14:34:58;;;;;;;4.90;2.13;;;36.60;27.80;;;;;;5009015;28;20136;-78
2021/11/09 14:37:29;;;;;;;6.05;1.98;;;36.70;27.80;;;;;;5009952;28;20046;-80
2021/11/09 14:40:06;;;;;;;4.57;2.00;;;36.50;27.60;;;;;;5010263;28;20058;-80
2021/11/09 14:42:43;;;;;;;4.57;2.00;;;36.20;27.60;;;;;;5011602;28;20053;-79
2021/11/09 14:45:19;;;;;;;5.35;2.20;;;35.90;27.70;;;;;;4992391;28;20056;-78
2021/11/09 14:47:52;;;;;;;4.25;1.90;;;35.60;27.80;;;;;;5010435;28;20108;-78